• Gossen Metrawatt
  • Camille Bauer

Workshops im Elektrogroßhandel

Diese Workshops werden vom Elektrogroßhandel eigenverantwortlich organisiert.

Die Trainer sind Mitarbeiter der GMC-I Messtechnik bzw. erfahrene selbstständige Referenten und sind stets auf dem neuesten Wissenstand. Hier erfahren Sie, welche Vorschriften einzuhalten sind und wie Sie erforderliche Messungen rationell und kostengünstig durchführen. 

Im Bedarfsfall wenden Sie sich bitte direkt an den angegebenen Ansprechpartner. 

15.01.19 Unielektro D-65760 Eschborn Fr. Oehler 06196/477-232 Hr. Bartelmeß 0100-600
16.01.19 Unielektro D-65760 Eschborn Fr. Oehler 06196/477-232 Hr. Bartelmeß 0701-0702
05.02.19 Unielektro D-55543 Bad Kreuznach Fr. Oehler 06196/477-232 Hr. Bartelmeß 0100-600
06.02.19 Unielektro D-55543 Bad Kreuznach Fr. Oehler 06196/477-232 Hr. Bartelmeß 0701-0702
06.02.19 Wohlfarth D-72793 Pfullingen Hr. Mollenkopf 07121/970-214 Hr. Herm 0100-600/0105
07.02.19 Hillmann & Ploog D-24941 Flensburg Hr. Klinckhammer 0461/957047-0 Hr. Ewers 0701-0702 0100-600/0105
18.02.19 Hagemeyer D-84030 Landshut Fr. Niksch 0871/97482661 Hr. Wohlfahrt 0701-0702
19.02.19 Hagemeyer D-84030 Landshut Fr. Niksch 0871/97482661 Hr. Wohlfahrt 0100-600/0105
25.02.19 Gautzsch D-96450 Coburg Fr. Scheler 09561/23831-4604 Hr. Wohlfahrt 0701-0702
26.02.19 Gautzsch D-96450 Coburg Fr. Scheler 09561/23831-4604 Hr. Wohlfahrt 0701-0702
27.02.19 Hillmann & Ploog D-22159 Hamburg-Farmsen Hr. Wartjes 040/64588-166 Hr. Ewers 0701-0702 0100-600/0105
06.03.19 Wohlfarth D-72793 Pfullingen Hr. Mollenkopf 07121/970-214 Hr. Herm 0701-0702
08.03.19 FAMO D-23556 Lübeck Hr. Pieck 0451/495353    Hr. Ewers 0100-600 mit Geräte-Einweisung
11.03.19 Unielektro D-04720 Döbeln/Mochau  Fr. Oehler 06196/477-232 Hr. Bartelmeß 0100-600
12.03.19 Unielektro D-04720 Döbeln/Mochau  Fr. Oehler 06196/477-232 Hr. Bartelmeß 0701-0702
12.03.19 Löffelhardt D-95448 Bayreuth Hr. Kögler 0921/79978-48 Hr. Wohlfahrt 0701-0702 / 0100-600/0105
13.03.19 Sonepar D-80687  München Hr. Hirsch-Bernhardt  089/354902-207 Hr. Wohlfahrt  Prüfen von E-Ladestationen
13.03.19 KSK Elektro D-67657 Kaiserslautern Hr. Christmann 0631/3424 201 Hr. Herm 0100-600/0105
13.03.19 Unielektro D-15749 Mittenwalde  Fr. Oehler 06196/477-232   Hr. Bartelmeß 0100-600
14.03.19 Unielektro D-15749 Mittenwalde  Fr. Oehler 06196/477-232   Hr. Bartelmeß 0701-0702
14.03.19 Streb D-77652 Offenburg Fr. Rösch 0781/27-112 Hr. Herm 0100-600/0105
19.03.19 KSK Elektro D-67657 Kaiserslautern Hr. Christmann 0631/3424-201 Hr. Herm 0701-0702
19.03.19 Hagemeyer D-94315 Straubing Hr. Knaus 09421/548-24 Hr. Wohlfahrt 0100-600/0105
20.03.19 Hagemeyer D-94315 Straubing Hr. Knaus 09421/548-24 Hr. Wohlfahrt 0113
20.03.19 Zajadacz D-38122 Braunschweig Hr. Naumann 0531/698810-00 Hr. Ewers 0701-0702 0100-600/0105
20.03.19 Unielektro D-65760 Eschborn Fr. Oehler 06196/477-232 Hr. Bartelmeß 0100-600
21.03.19 Unielektro D-65760 Eschborn Fr. Oehler 06196/477-232 Hr. Bartelmeß 0701-0702
21.03.19 Hagemeyer D-94315 Straubing Hr. Knaus 09421/548-24 Hr. Wohlfahrt 0701-0702
22.03.19 Hagemeyer D-94315 Straubing Hr. Knaus 09421/548-24 Hr. Wohlfahrt 0701-0702 / PRCD
25.03.19 Sonepar D-85053 Ingolstadt Hr. Franke 0841/96557-29 Hr. Wohlfahrt 0100-600/0105
26.03.19 Sonepar D-85053 Ingolstadt Hr. Franke 0841/96557-29 Hr. Wohlfahrt 0701-0702
27.03.19 Streb D-77652 Offenburg Fr. Rösch 0781/27-112 Hr. Herm 0701-0702
28.03.19 Zajadacz D-24109 Kiel Hr. Seraphin 0431/58797-33 Hr. Ewers 0100-600 mit Geräte-Einweisung
04.04.19 P.L. KEMPF D-66119 Saarbrücken Hr. Heinen 0681/94862-19 Hr. Herm 0100-600 / 0105
02.04.19 Zajadacz D-23556 Lübeck-Roggenhorst Hr. Lohrmann 0451/87990-0 Hr. Ewers 0701-0702 einschließlich Geräte-Einweisung
09.04.19 Sonepar D-86154 Augsburg Fr. Bernhard 0821/4104-222 Hr. Wohlfahrt 0701-0702
10.04.19 Sonepar D-86154 Augsburg Fr. Bernhard 0821/4104-222 Hr. Wohlfahrt 0701-0702
11.04.19 Hagemeyer D-85053 Ingolstadt Hr. Paulus 0841/9657-36 Hr. Wohlfahrt 0701-0702 / 0100-600/0105 
11.04.19 P.L. KEMPF D-66119 Saarbrücken Hr. Heinen 0681/94862-19 Hr. Herm 0701-0702
24.04.19 Hillmann & Ploog D-22159 Hamburg-Farmsen Hr. Wartjes 040/64588-166 Hr. Ewers 0701-0702 einschließlich Geräte-Einweisung
06.05.19 REXEL D-90451 Nürnberg Fr. Riedner 0911/64137-11 Hr. Wohlfahrt 0701-0702
07.05.19 REXEL D-90451 Nürnberg Fr. Riedner 0911/64137-11 Hr. Wohlfahrt 0100/0105
08.05.19 Bürkle D-68519 Viernheim Fr. Dörsam 06204/708750 Hr. Herm 0100-600 / 0105
08.05.19 Unielektro D-35440 Linden Fr. Oehler 06196/477-232M Hr. Bartelmeß 0100-600
09.05.19 Unielektro D-35440 Linden Fr. Oehler 06196/477-232 Hr. Bartelmeß 0701-0702
09.05.19 Hillmann & Ploog D-22159 Hamburg-Farmsen Hr. Wartjes 040/64588-166 Hr. Ewers 0100-600 einschließlich Geräte-Einweisung
15.05.19 Bürkle D-68519 Viernheim Fr. Dörsam 06204/708750 Hr. Herm 0701-0702
20.05.19 Unielektro D-51105 Köln Fr. Oehler 06196/477-232 Hr. Bartelmeß 0100-600
21.05.19 Unielektro D-51105 Köln Fr. Oehler 06196/477-232 Hr. Bartelmeß 0701-0702
21.05.19 Zajadacz D-21629 Neu-Wulmstorf Fr. Belitz 040/70077-281 Hr. Ewers 0100-600 einschließlich Geräte-Einweisung
22.05.19  Sautter  D-76131 Karlsruhe Hr. Hauck 0721/6206-274 Hr. Herm 0100-600 / 0105
28.05.19 Zajadacz D-22525 Hamburg-Stellingen Hr. Menne 040/7902650-0 Hr. Ewers 0701-0702 einschließlich Geräte-Einweisung
29.05.19 Sautter D-76131 Karlsruhe Hr. Hauck 0721/6206-274 Hr. Herm 0100-600 / 0105
04.06.19 Unielektro D-65760 Eschborn Fr. Oehler 06196/477-232 Hr. Bartelmeß 0100-600
05.06.19 Unielektro D-65760 Eschborn Fr. Oehler 06196/477-232 Hr. Bartelmeß 0701-0702
05.06.19 Hagemeyer D-83026 Rosenheim Hr. Staber 08031/2459-47 Hr. Wohlfahrt 0701-0702 0100-600/0105
06.06.19 Hagemeyer D-83026 Traunstein Hr. Staber 08031/2459-47 Hr. Wohlfahrt 0701-0702 0100-600/0105
14.06.19 FAMO D-23556 Lübeck Hr. Pieck 0451/495353 Hr. Ewers 0701-0702 einschließlich Geräte-Einweisung
25.06.19 FAMO D-41179 Mönchengladbach Fr. Fujera 02161/8992-122 Hr. Bartelmeß 0701-0702
26.06.19 Unielektro D-99098 Erfurt Fr. Oehler 06196/477-232 Hr. Bartelmeß 0100-600
27.06.19 Unielektro  D-99098 Erfurt Fr. Oehler  06196/477-232  Hr. Bartelmeß 0701-0702
03.07.19 Zander D-45141 Essen Hr. Weirich  0201/1704-150 Hr. Bartelmeß 0100-600
04.07.19 Zander  D-45141  Essen Hr. Weirich  0201/1704-150  Hr. Bartelmeß 0701-0702
27.08.19 Unielektro  D-06116 Halle Fr. Oehler  06196/477-232  Hr. Bartelmeß 0100-600
28.08.19 Unielektro  D-06116 Halle Fr. Oehler  06196/477-232  Hr. Bartelmeß 0701-0702
16.09.19 EFG Gienger D-83355 Grabenstätt Hr. Buchner 0861/704-173 Hr. Wohlfahrt 0100-600 / 0105
17.09.19 EFG Gienger D-83355 Grabenstätt Hr. Buchner 0861/704-173 Hr. Wohlfahrt 0701-0702
16.09.19 Unielektro D-65760 Eschborn Fr. Oehler  06196/477-232  Hr. Bartelmeß 0100-600
17.09.19 Unielektro D-65760 Eschborn Fr. Oehler  06196/477-232  Hr. Bartelmeß 0701-0702
18.09.19 F. Sautter D-76131 Karlsruhe Hr. Hauck 0721/6206-274 Hr. Herm 0100-600 / 0105
25.09.19 F. Sautter D-76131 Karlsruhe Hr. Hauck 0721/6206-274 Hr. Herm 0100-600 / 0105
01.10.19 EFG Gienger D-90530 Nürnberg Hr. Senlik 08121/447-22 Hr. Wohlfahrt Prüfen von E-Ladestationen
09.10.19 KSK Elektro D-67657 Kaiserslautern Hr. Christmann 0631/3424-201 Hr. Herm 0100-600 / 0105
15.10.19 Unielektro D-56070 Koblenz Fr. Oehler  06196/477-232  Hr. Bartelmeß 0100-600
16.10.19 Unielektro D-56070 Koblenz Fr. Oehler  06196/477-232  Hr. Bartelmeß 0701-0702
16.10.19  Streb D-77652 Offenburg Fr. Rösch 0781/27-112 Hr. Herm 0100-600 / 0105
17.10.19 FAMO D-52349 Düren Fr. Fujera 02161/8992-122 Hr. Bartelmeß 0701-0702
23.10.19 KSK Elektro D-67657 Kaiserslautern Hr. Christmann 0631/3424-201 Hr. Herm 0701-0702
29.10.19 Unielektro D-65760 Dortmund Fr. Oehler  06196/477-232   Hr. Bartelmeß 0100-600
30.10.19 Unielektro D-65760 Dortmund Fr. Oehler  06196/477-232   Hr. Bartelmeß 0701-0702
19.11.19 Unielektro D-44149 Eschborn Fr. Oehler 06196/477-232 Hr. Bartelmeß 0100-600
20.11.19 Unielektro D-44149 Eschborn Fr. Oehler 06196/477-232 Hr. Bartelmeß 0701-0702
21.11.19 FAMO D-41179 Mönchengladbach Fr. Fujera 02161/8992-122 Hr. Bartelmeß 0100-600
27.11.19 Unielektro D-35440 Linden Fr. Oehler 06196/477-232  Hr. Bartelmeß 0100-600
28.11.19 Unielektro D-35440 Linden Fr. Oehler 06196/477-232  Hr. Bartelmeß 0701-0702
03.12.19 Unielektro D-15749 Döbeln/Mochau Fr. Oehler 06196/477-232  Hr. Bartelme 0100-600
04.12.19 Unielektro D-15749 Döbeln/Mochau Fr. Oehler 06196/477-232  Hr. Bartelme 0701-0702
05.12.19 Unielektro D-04720 Mittenwalde Fr. Oehler 06196/477-232  Hr.Bartelmeß   0100-600
06.12.19 Unielektro D-04720 Mittenwalde Fr. Oehler 06196/477-232  Hr. Bartelmeß 0701-0702
12.12.19 EBRA D-63924 Kleinheubach Hr. Müller 09371-4098-38 Hr. Bartelmeß 0701-0702
17.12.19 Unielektro D-65760 Eschborn Fr. Oehler 06196/477-232  Hr. Bartelmeß 0100-600
18.12.19 Unielektro D-65760 Eschborn Fr. Oehler 06196/477-232  Hr. Bartelmeß 0701-0702

 

Dialog, Infos und Aktionen: